Mostly Cloudy Current Weather (METAR) For Innsbruck - Kranebitten Airport

All times on the weather descriptions are local

Observed at 15:20 - (31 mins ago)

Mostly Cloudy

25°C

Mostly Cloudy
Clouds: Few Clouds at 5,000ft, Broken Clouds at 30,000ft
Wind: Variable at 02 knots
Visibility: Greater than 10km
QNH: 1010
Dew Point: 14°C
Runway in Use: Unable to determine, wind is variable

Sunrise Today: 05:52
Sunset Today: 20:49

Forecast Weather (TAF) For Innsbruck - Kranebitten Airport

Issued at 02:00 - (30 days ago)


Runway in Use: Unable to determine, wind is clam

Forecast valid until 02:00 on Sunday

METAR/TAF RAW METAR / TAF

LOWI 011320Z VRB02KT 9999 FEW050 BKN300 25/14 Q1010 NOSIG

Weather Widget

Put weather from any of our airports on your website with our weather widget.

Find Another Search

Airport Search


Please Wait Please Wait - Loading
Close
Close

Login

Username:

Password:

Remember Me:

Remember me on this computer

Forgotten your password? Get a reset password sent to your registered e-mail address

Close

User Private Message

Subject:

Message: